createdAt,value
2023-03-27T00:03:06.832Z,1.20
2023-03-27T00:07:06.992Z,1.21
2023-03-27T00:11:07.215Z,1.18
2023-03-27T00:15:07.158Z,1.20
2023-03-27T00:19:07.129Z,1.20
2023-03-27T00:23:07.096Z,1.19
2023-03-27T00:27:07.082Z,1.21
2023-03-27T00:31:07.000Z,1.22
2023-03-27T00:35:06.976Z,1.23
2023-03-27T00:39:06.951Z,1.20
2023-03-27T00:43:06.921Z,1.20
2023-03-27T00:47:06.850Z,1.19
2023-03-27T00:51:06.904Z,1.22
2023-03-27T00:55:06.795Z,1.22
2023-03-27T00:59:06.773Z,1.23
2023-03-27T01:03:06.812Z,1.22
2023-03-27T01:07:06.691Z,1.22
2023-03-27T01:11:06.705Z,1.22
2023-03-27T01:15:06.622Z,1.24
2023-03-27T01:19:06.580Z,1.20
2023-03-27T01:23:06.570Z,1.21
2023-03-27T01:27:06.573Z,1.23
2023-03-27T01:31:06.577Z,1.20
2023-03-27T01:35:06.530Z,1.24
2023-03-27T01:39:06.505Z,1.23
2023-03-27T01:43:06.461Z,1.23
2023-03-27T01:47:06.412Z,1.23
2023-03-27T01:51:06.402Z,1.22
2023-03-27T01:55:06.383Z,1.20
2023-03-27T01:59:06.315Z,1.21
2023-03-27T02:03:06.274Z,1.18
2023-03-27T02:07:06.256Z,1.19
2023-03-27T02:11:06.200Z,1.23
2023-03-27T02:15:24.600Z,1.25
2023-03-27T02:19:07.270Z,1.23
2023-03-27T02:23:06.192Z,1.20
2023-03-27T02:27:06.402Z,1.24
2023-03-27T02:31:32.425Z,1.25
2023-03-27T02:35:07.546Z,1.22
2023-03-27T02:39:06.517Z,1.23
2023-03-27T02:43:06.667Z,1.22
2023-03-27T02:47:06.849Z,1.24
2023-03-27T02:51:07.090Z,1.22
2023-03-27T02:55:07.276Z,1.21
2023-03-27T02:59:07.440Z,1.22
2023-03-27T03:03:07.889Z,1.21
2023-03-27T03:07:07.874Z,1.22
2023-03-27T03:11:08.033Z,1.22
2023-03-27T03:15:08.296Z,1.22
2023-03-27T03:19:08.511Z,1.25
2023-03-27T03:23:08.692Z,1.23
2023-03-27T03:27:08.849Z,1.21
2023-03-27T03:31:09.114Z,1.22
2023-03-27T03:35:09.040Z,1.25
2023-03-27T03:39:09.016Z,1.24
2023-03-27T03:43:08.936Z,1.23
2023-03-27T03:47:08.961Z,1.25
2023-03-27T03:51:08.887Z,1.26
2023-03-27T03:55:08.864Z,1.23
2023-03-27T03:59:08.835Z,1.24
2023-03-27T04:03:08.965Z,1.26
2023-03-27T04:07:08.740Z,1.06
2023-03-27T04:11:08.715Z,0.92
2023-03-27T04:15:08.734Z,0.69
2023-03-27T04:19:08.661Z,0.56
2023-03-27T04:23:08.795Z,0.52
2023-03-27T04:27:08.869Z,0.51
2023-03-27T04:31:08.904Z,0.53
2023-03-27T04:35:08.879Z,0.59
2023-03-27T04:39:08.908Z,0.62
2023-03-27T04:43:08.976Z,0.63
2023-03-27T04:47:09.306Z,0.69
2023-03-27T04:55:09.228Z,0.77
2023-03-27T04:59:09.248Z,0.79
2023-03-27T05:03:09.362Z,0.85
2023-03-27T05:07:09.298Z,0.90
2023-03-27T05:11:09.266Z,0.94
2023-03-27T05:15:09.299Z,0.92
2023-03-27T05:19:09.334Z,0.98
2023-03-27T05:23:09.330Z,0.97
2023-03-27T05:27:09.278Z,0.99
2023-03-27T05:31:09.965Z,0.91
2023-03-27T05:35:09.470Z,0.94
2023-03-27T05:39:09.358Z,0.83
2023-03-27T05:43:11.345Z,0.79
2023-03-27T05:47:09.463Z,0.79
2023-03-27T05:51:09.807Z,0.93
2023-03-27T05:55:09.781Z,1.02
2023-03-27T05:59:09.712Z,1.03
2023-03-27T06:03:10.043Z,0.91
2023-03-27T06:07:10.125Z,1.00
2023-03-27T06:11:10.072Z,1.04
2023-03-27T06:15:10.163Z,1.20
2023-03-27T06:19:10.307Z,1.17
2023-03-27T06:23:09.959Z,1.23
2023-03-27T06:27:10.901Z,1.20
2023-03-27T06:31:09.992Z,1.26
2023-03-27T06:35:09.858Z,1.22
2023-03-27T06:39:09.929Z,0.57
2023-03-27T06:43:09.879Z,0.68
2023-03-27T06:47:09.804Z,0.99
2023-03-27T06:51:09.706Z,1.13
2023-03-27T06:55:14.651Z,1.09
2023-03-27T06:59:10.832Z,1.05
2023-03-27T07:03:09.926Z,1.17
2023-03-27T07:07:09.734Z,1.24
2023-03-27T07:11:12.195Z,1.06
2023-03-27T07:15:09.696Z,1.16
2023-03-27T07:19:09.691Z,1.29
2023-03-27T07:23:09.617Z,1.20
2023-03-27T07:27:09.567Z,1.16
2023-03-27T07:31:20.119Z,1.18
2023-03-27T07:35:10.486Z,1.14
2023-03-27T07:39:09.513Z,0.61
2023-03-27T07:43:09.673Z,0.48
2023-03-27T07:47:09.866Z,0.56
2023-03-27T07:51:13.711Z,0.65
2023-03-27T07:55:10.005Z,0.69
2023-03-27T07:59:09.992Z,0.82
2023-03-27T08:03:10.665Z,0.88
2023-03-27T08:07:09.938Z,0.96
2023-03-27T08:11:23.042Z,0.89
2023-03-27T08:15:10.816Z,0.88
2023-03-27T08:19:09.921Z,0.72
2023-03-27T08:23:09.755Z,0.49
2023-03-27T08:27:09.976Z,0.58
2023-03-27T08:31:10.194Z,0.63
2023-03-27T08:35:10.075Z,0.54
2023-03-27T08:39:10.133Z,0.72
2023-03-27T08:43:10.135Z,0.54
2023-03-27T08:47:10.273Z,0.74
2023-03-27T08:51:11.687Z,0.50
2023-03-27T08:55:10.415Z,0.53
2023-03-27T08:59:10.917Z,0.49
2023-03-27T09:03:10.952Z,0.56
2023-03-27T09:07:10.973Z,0.58
2023-03-27T09:11:11.156Z,0.72
2023-03-27T09:15:11.209Z,1.02
2023-03-27T09:19:11.206Z,1.20
2023-03-27T09:23:11.374Z,1.40
2023-03-27T09:27:11.941Z,1.42
2023-03-27T09:31:11.925Z,1.60
2023-03-27T09:35:11.935Z,0.60
2023-03-27T09:39:11.999Z,0.73
2023-03-27T09:43:12.446Z,0.90
2023-03-27T09:47:12.205Z,1.75
2023-03-27T09:51:12.397Z,3.19
2023-03-27T09:55:12.431Z,4.35
2023-03-27T09:59:12.655Z,5.53
2023-03-27T10:03:12.841Z,6.06
2023-03-27T10:07:12.851Z,10.16
2023-03-27T10:11:12.889Z,9.04
2023-03-27T10:15:12.972Z,9.10
2023-03-27T10:19:12.944Z,8.78
2023-03-27T10:23:13.429Z,10.29
2023-03-27T10:27:12.995Z,8.67
2023-03-27T10:31:13.083Z,2.83
2023-03-27T10:35:13.239Z,1.46
2023-03-27T10:39:13.397Z,0.94
2023-03-27T10:43:13.519Z,0.60
2023-03-27T10:47:13.717Z,0.62
2023-03-27T10:51:13.823Z,0.84
2023-03-27T10:55:13.912Z,0.88
2023-03-27T10:59:13.712Z,0.93
2023-03-27T11:03:13.740Z,0.85
2023-03-27T11:07:16.352Z,0.82
2023-03-27T11:11:13.660Z,0.90
2023-03-27T11:15:13.636Z,0.89
2023-03-27T11:19:13.532Z,1.50
2023-03-27T11:23:13.542Z,1.75
2023-03-27T11:27:14.623Z,1.89
2023-03-27T11:31:13.483Z,2.06
2023-03-27T11:35:13.404Z,2.29
2023-03-27T11:39:13.371Z,2.47
2023-03-27T11:43:13.333Z,2.50
2023-03-27T11:47:13.897Z,2.59
2023-03-27T11:51:13.235Z,2.60
2023-03-27T11:55:13.240Z,2.61
2023-03-27T11:59:13.266Z,2.65
2023-03-27T12:03:13.240Z,2.88
2023-03-27T12:07:13.329Z,2.81
2023-03-27T12:11:13.173Z,2.92
2023-03-27T12:15:13.200Z,3.11
2023-03-27T12:19:27.784Z,3.28
2023-03-27T12:23:14.205Z,3.52
2023-03-27T12:27:13.297Z,3.53
2023-03-27T12:31:13.210Z,3.29
2023-03-27T12:35:13.164Z,3.62
2023-03-27T12:39:13.126Z,3.56
2023-03-27T12:43:13.050Z,3.55
2023-03-27T12:47:13.157Z,3.42
2023-03-27T12:51:13.258Z,3.48
2023-03-27T12:55:13.270Z,3.49
2023-03-27T12:59:13.399Z,3.50
2023-03-27T13:03:13.499Z,3.46
2023-03-27T13:07:13.521Z,3.50
2023-03-27T13:11:13.621Z,3.44
2023-03-27T13:15:13.688Z,3.35
2023-03-27T13:19:13.750Z,3.55
2023-03-27T13:23:13.808Z,3.57
2023-03-27T13:27:13.884Z,3.53
2023-03-27T13:31:13.966Z,3.69
2023-03-27T13:35:13.894Z,3.63
2023-03-27T13:39:13.968Z,3.71
2023-03-27T13:43:13.994Z,3.47
2023-03-27T13:47:13.962Z,3.46
2023-03-27T13:51:13.992Z,3.30
2023-03-27T13:55:13.982Z,3.36
2023-03-27T13:59:14.331Z,3.43
2023-03-27T14:03:14.157Z,3.47
2023-03-27T14:07:13.953Z,3.46
2023-03-27T14:11:13.975Z,3.56
2023-03-27T14:15:13.994Z,3.50
2023-03-27T14:19:13.987Z,3.37
2023-03-27T14:23:13.948Z,3.34
2023-03-27T14:27:14.044Z,3.36
2023-03-27T14:31:13.973Z,3.39
2023-03-27T14:35:13.942Z,3.34
2023-03-27T14:39:13.988Z,3.19
2023-03-27T14:43:13.917Z,3.13
2023-03-27T14:47:13.913Z,3.14
2023-03-27T14:51:13.991Z,3.20
2023-03-27T14:55:14.074Z,3.16
2023-03-27T14:59:14.140Z,3.25
2023-03-27T15:03:14.162Z,3.29
2023-03-27T15:07:14.158Z,3.21
2023-03-27T15:11:14.203Z,3.28
2023-03-27T15:15:14.219Z,3.14
2023-03-27T15:19:14.238Z,3.16
2023-03-27T15:23:14.164Z,3.14
2023-03-27T15:27:14.187Z,3.02
2023-03-27T15:31:14.206Z,3.11
2023-03-27T15:35:14.148Z,3.16
2023-03-27T15:39:14.167Z,3.00
2023-03-27T15:43:14.191Z,3.00
2023-03-27T15:47:15.083Z,3.02
2023-03-27T15:51:14.174Z,3.02
2023-03-27T15:55:14.189Z,3.05
2023-03-27T15:59:14.116Z,3.06
2023-03-27T16:03:14.172Z,3.01
2023-03-27T16:07:14.078Z,2.93
2023-03-27T16:11:14.106Z,3.06
2023-03-27T16:15:14.111Z,3.05
2023-03-27T16:19:14.154Z,3.03
2023-03-27T16:23:14.208Z,2.85
2023-03-27T16:27:14.214Z,2.93
2023-03-27T16:31:14.311Z,2.83
2023-03-27T16:35:14.333Z,2.92
2023-03-27T16:39:14.416Z,2.87
2023-03-27T16:43:14.532Z,2.91
2023-03-27T16:47:14.623Z,2.90
2023-03-27T16:51:14.823Z,2.86
2023-03-27T16:55:14.890Z,2.80
2023-03-27T16:59:15.017Z,2.75
2023-03-27T17:03:15.190Z,2.74
2023-03-27T17:07:15.295Z,2.74
2023-03-27T17:11:15.430Z,2.72
2023-03-27T17:15:15.526Z,2.61
2023-03-27T17:19:15.702Z,2.59
2023-03-27T17:23:15.833Z,2.59
2023-03-27T17:27:16.061Z,2.61
2023-03-27T17:31:16.295Z,2.50
2023-03-27T17:35:16.393Z,2.51
2023-03-27T17:39:16.602Z,2.43
2023-03-27T17:43:16.781Z,2.49
2023-03-27T17:47:17.095Z,2.51
2023-03-27T17:51:17.242Z,2.54
2023-03-27T17:55:17.193Z,2.58
2023-03-27T17:59:17.215Z,2.45
2023-03-27T18:03:17.252Z,2.53
2023-03-27T18:07:17.155Z,2.57
2023-03-27T18:11:17.107Z,2.55
2023-03-27T18:15:17.071Z,2.55
2023-03-27T18:19:17.026Z,2.66
2023-03-27T18:23:16.958Z,2.61
2023-03-27T18:27:16.951Z,2.47
2023-03-27T18:31:16.886Z,2.59
2023-03-27T18:35:17.013Z,2.67
2023-03-27T18:39:17.163Z,2.19
2023-03-27T18:43:17.439Z,1.61
2023-03-27T18:47:17.425Z,1.31
2023-03-27T18:51:18.165Z,1.29
2023-03-27T18:55:17.843Z,1.20
2023-03-27T18:59:18.023Z,1.02
2023-03-27T19:03:18.297Z,0.86
2023-03-27T19:07:18.283Z,0.82
2023-03-27T19:11:19.184Z,1.02
2023-03-27T19:15:20.381Z,1.03
2023-03-27T19:19:18.790Z,1.10
2023-03-27T19:23:18.966Z,1.21
2023-03-27T19:27:23.758Z,1.28
2023-03-27T19:31:20.102Z,1.27
2023-03-27T19:35:18.985Z,1.45
2023-03-27T19:39:18.967Z,1.53
2023-03-27T19:43:18.978Z,1.58
2023-03-27T19:47:18.915Z,1.71
2023-03-27T19:51:18.882Z,1.73
2023-03-27T19:55:18.867Z,1.82
2023-03-27T19:59:29.826Z,1.88
2023-03-27T20:03:19.871Z,1.92
2023-03-27T20:07:18.772Z,2.08
2023-03-27T20:11:18.734Z,2.11
2023-03-27T20:15:18.748Z,2.19
2023-03-27T20:19:19.410Z,2.24
2023-03-27T20:23:18.661Z,2.26
2023-03-27T20:27:18.571Z,2.30
2023-03-27T20:31:18.620Z,2.32
2023-03-27T20:35:24.214Z,2.36
2023-03-27T20:39:19.666Z,2.37
2023-03-27T20:43:18.467Z,2.44
2023-03-27T20:47:18.414Z,2.43
2023-03-27T20:51:18.368Z,2.50
2023-03-27T20:55:30.447Z,2.49
2023-03-27T20:59:19.305Z,2.51
2023-03-27T21:03:18.311Z,2.55
2023-03-27T21:07:18.272Z,2.52
2023-03-27T21:11:18.353Z,2.55
2023-03-27T21:15:18.387Z,2.51
2023-03-27T21:19:18.460Z,2.57
2023-03-27T21:23:18.550Z,2.52
2023-03-27T21:27:18.575Z,2.52
2023-03-27T21:31:18.614Z,2.52
2023-03-27T21:35:18.700Z,2.62
2023-03-27T21:39:18.758Z,2.56
2023-03-27T21:43:18.787Z,2.60
2023-03-27T21:47:18.852Z,2.58
2023-03-27T21:51:18.957Z,2.56
2023-03-27T21:55:18.970Z,2.57
2023-03-27T21:59:19.112Z,2.52
2023-03-27T22:03:19.126Z,2.55
2023-03-27T22:07:19.204Z,2.56
2023-03-27T22:11:19.283Z,2.57
2023-03-27T22:15:19.356Z,2.55
2023-03-27T22:19:19.501Z,2.61
2023-03-27T22:23:19.547Z,2.55
2023-03-27T22:27:19.820Z,2.55
2023-03-27T22:31:19.738Z,2.51
2023-03-27T22:35:19.778Z,2.55
2023-03-27T22:39:19.919Z,2.47
2023-03-27T22:43:22.558Z,2.53
2023-03-27T22:47:19.987Z,2.52
2023-03-27T22:51:19.948Z,2.52
2023-03-27T22:55:19.889Z,2.49
2023-03-27T22:59:19.905Z,2.51
2023-03-27T23:03:19.954Z,2.45
2023-03-27T23:07:19.761Z,2.52
2023-03-27T23:11:19.765Z,2.54
2023-03-27T23:15:30.280Z,2.51
2023-03-27T23:19:20.733Z,2.48
2023-03-27T23:23:19.640Z,2.53
2023-03-27T23:27:19.622Z,2.48
2023-03-27T23:31:19.723Z,2.45
2023-03-27T23:35:19.823Z,2.46
2023-03-27T23:39:20.188Z,2.49
2023-03-27T23:43:20.151Z,2.48
2023-03-27T23:47:20.274Z,2.47
2023-03-27T23:51:20.420Z,2.43
2023-03-27T23:55:20.601Z,2.42
2023-03-27T23:59:20.762Z,2.42
